Time;durP1;ratioP1;P1;durP2;ratioP2;P2;SDS_P1;SDS_P2;PMS_P1;PMS_P2;Temp;Humidity;BMP_temperature;BMP_pressure;BME280_temperature;BME280_humidity;BME280_pressure;Samples;Min_cycle;Max_cycle;Signal;HPM_P1;HPM_P2
2022/01/08 00:00:17;;;;;;;15.13;12.63;;;;;;;3.60;72.78;101354.13;5088592;28;20708;-81
2022/01/08 00:02:44;;;;;;;19.97;13.17;;;;;;;3.56;72.60;101347.31;5088220;28;20075;-80
2022/01/08 00:05:39;;;;;;;13.27;11.87;;;;;;;3.47;73.20;101320.66;5089155;28;20052;-80
2022/01/08 00:08:32;;;;;;;14.53;13.03;;;;;;;2.94;72.89;101238.31;5089884;28;20511;-80
2022/01/08 00:11:18;;;;;;;17.03;12.33;;;;;;;3.59;73.47;101346.31;5065631;28;20391;-80
2022/01/08 00:13:48;;;;;;;14.90;13.40;;;;;;;3.16;73.37;101280.13;5066201;28;20139;-81
2022/01/08 00:16:15;;;;;;;13.90;12.40;;;;;;;3.56;73.59;101352.56;5065004;28;20561;-81
2022/01/08 00:18:41;;;;;;;15.33;13.77;;;;;;;2.94;73.40;101254.91;5065793;28;20047;-80
2022/01/08 00:21:08;;;;;;;14.00;12.50;;;;;;;3.01;73.30;101247.59;5065232;28;20100;-81
2022/01/08 00:23:35;;;;;;;13.53;12.23;;;;;;;3.56;73.36;101341.22;5065047;28;20094;-80
2022/01/08 00:26:04;;;;;;;13.57;12.27;;;;;;;3.45;74.00;101332.97;5065519;28;20162;-81
2022/01/08 00:28:32;;;;;;;15.57;12.50;;;;;;;3.42;73.78;101332.22;5065617;28;20140;-80
2022/01/08 00:30:59;;;;;;;14.73;12.87;;;;;;;3.23;74.41;101310.41;5065690;28;20048;-81
2022/01/08 00:33:25;;;;;;;14.30;12.80;;;;;;;3.18;74.18;101304.50;5065802;28;20144;-81
2022/01/08 00:35:52;;;;;;;14.70;11.93;;;;;;;3.10;74.59;101291.75;5065339;28;20047;-80
2022/01/08 00:38:18;;;;;;;14.77;11.63;;;;;;;3.20;74.34;101311.41;5065778;28;20143;-82
2022/01/08 00:40:45;;;;;;;12.60;11.50;;;;;;;3.05;74.29;101283.22;5065630;28;20057;-80
2022/01/08 00:43:11;;;;;;;16.03;13.17;;;;;;;3.28;74.66;101315.44;5065251;28;20040;-81
2022/01/08 00:45:38;;;;;;;13.43;12.17;;;;;;;3.19;74.90;101312.31;5065526;28;20284;-80
2022/01/08 00:48:05;;;;;;;16.80;13.20;;;;;;;3.11;74.83;101301.31;5065478;28;20337;-81
2022/01/08 00:50:35;;;;;;;14.37;12.73;;;;;;;2.63;74.31;101229.22;5065161;28;20404;-80
2022/01/08 00:53:02;;;;;;;16.37;13.67;;;;;;;3.18;74.27;101323.75;5065627;28;20048;-81
2022/01/08 00:55:31;;;;;;;14.77;13.33;;;;;;;3.07;74.13;101302.38;5065750;28;20185;-80
2022/01/08 00:58:00;;;;;;;15.27;12.37;;;;;;;3.19;75.03;101321.97;5065634;28;20060;-81
2022/01/08 01:00:30;;;;;;;21.13;12.97;;;;;;;2.97;74.49;101290.63;5065356;28;20047;-80
2022/01/08 01:02:57;;;;;;;13.97;12.67;;;;;;;2.96;75.35;101284.53;5064843;28;20457;-80
2022/01/08 01:05:23;;;;;;;13.83;12.53;;;;;;;2.96;75.07;101278.41;5065453;28;20070;-80
2022/01/08 01:07:50;;;;;;;14.07;12.67;;;;;;;3.19;74.86;101325.44;5064981;28;20057;-80
2022/01/08 01:10:18;;;;;;;14.33;12.87;;;;;;;2.87;75.04;101273.63;5079432;28;20044;-81
2022/01/08 01:12:44;;;;;;;13.57;12.27;;;;;;;3.04;75.21;101312.19;5085513;28;20044;-81
2022/01/08 01:15:13;;;;;;;14.97;13.43;;;;;;;3.13;75.51;101323.09;5088289;28;20048;-80
2022/01/08 01:17:41;;;;;;;18.27;13.80;;;;;;;2.40;75.69;101198.81;5089175;28;20059;-81
2022/01/08 01:20:15;;;;;;;14.27;12.50;;;;;;;2.82;75.00;101270.34;5089596;28;20709;-80
2022/01/08 01:23:05;;;;;;;15.25;13.65;;;;;;;3.11;75.12;101324.94;5089447;28;20095;-80
2022/01/08 01:25:37;;;;;;;15.27;13.70;;;;;;;2.87;74.93;101286.72;5090330;28;20040;-81
2022/01/08 01:47:07;;;;;;;16.37;14.53;;;;;;;2.62;75.48;101252.88;5090587;28;20562;-79
2022/01/08 01:49:37;;;;;;;14.83;13.03;;;;;;;2.87;75.91;101290.19;5088901;28;20059;-80
2022/01/08 01:52:05;;;;;;;14.97;13.47;;;;;;;2.96;75.52;101309.88;5088951;28;20131;-80
2022/01/08 01:54:33;;;;;;;14.93;13.40;;;;;;;2.28;75.23;101208.09;5088761;28;20048;-80
2022/01/08 01:57:03;;;;;;;17.87;14.07;;;;;;;2.93;74.69;101315.28;5088715;28;20050;-81
2022/01/08 01:59:32;;;;;;;15.33;13.20;;;;;;;2.76;74.96;101282.78;5088565;28;20068;-82
2022/01/08 02:01:59;;;;;;;14.97;13.37;;;;;;;2.79;75.34;101281.81;5089088;28;20133;-79
2022/01/08 02:04:27;;;;;;;15.00;12.83;;;;;;;2.70;75.65;101267.34;5088822;28;20054;-80
2022/01/08 02:06:53;;;;;;;15.43;12.63;;;;;;;2.79;75.69;101281.81;5088912;28;20048;-81
2022/01/08 02:09:20;;;;;;;16.53;14.20;;;;;;;2.00;76.31;101155.22;5083165;28;20037;-80
2022/01/08 02:12:11;;;;;;;16.70;14.90;;;;;;;2.77;76.01;101278.44;5067716;28;20432;-81
2022/01/08 02:14:39;;;;;;;14.30;13.00;;;;;;;2.77;75.68;101283.69;5069783;28;20094;-81
2022/01/08 02:17:08;;;;;;;19.67;13.47;;;;;;;2.70;76.09;101269.97;5068676;28;20037;-80
2022/01/08 02:19:35;;;;;;;14.63;13.00;;;;;;;2.74;75.31;101279.41;5069542;28;20045;-81
2022/01/08 02:22:04;;;;;;;14.83;13.30;;;;;;;2.73;75.81;101263.75;5068011;28;20180;-81
2022/01/08 02:24:31;;;;;;;19.70;14.23;;;;;;;2.73;75.71;101269.84;5068220;28;20080;-81
2022/01/08 02:26:58;;;;;;;16.03;14.37;;;;;;;2.76;76.26;101280.19;5068495;28;20138;-81
2022/01/08 02:29:26;;;;;;;15.57;13.97;;;;;;;2.72;75.95;101260.28;5068303;28;20150;-80
2022/01/08 02:32:03;;;;;;;16.63;14.10;;;;;;;2.66;75.98;101250.06;5068171;28;20135;-79
2022/01/08 02:34:30;;;;;;;21.27;13.70;;;;;;;2.78;75.49;101273.09;5068493;28;20231;-80
2022/01/08 02:37:01;;;;;;;16.10;14.43;;;;;;;2.63;75.13;101258.06;5068376;28;20143;-80
2022/01/08 02:39:30;;;;;;;15.47;13.97;;;;;;;2.52;75.46;101237.56;5067845;28;20135;-79
2022/01/08 02:41:59;;;;;;;13.70;12.27;;;;;;;2.65;76.29;101258.84;5068990;28;20155;-80
2022/01/08 02:44:27;;;;;;;14.93;13.43;;;;;;;2.67;75.71;101257.03;5068682;28;20048;-80
2022/01/08 02:46:54;;;;;;;16.83;13.20;;;;;;;2.33;75.97;101211.38;5068999;28;20049;-81
2022/01/08 02:49:23;;;;;;;15.07;13.57;;;;;;;2.56;76.09;101254.03;5067507;28;20140;-80
2022/01/08 02:51:51;;;;;;;15.47;13.70;;;;;;;2.18;75.44;101198.09;5067361;28;20044;-80
2022/01/08 02:54:18;;;;;;;15.60;13.83;;;;;;;2.61;75.77;101257.28;5067439;28;20049;-80
2022/01/08 02:56:49;;;;;;;16.10;14.43;;;;;;;2.53;75.15;101234.03;5050919;28;20305;-80
2022/01/08 02:59:17;;;;;;;16.70;14.40;;;;;;;2.62;74.93;101248.53;5068817;28;20054;-81
2022/01/08 03:01:44;;;;;;;15.90;14.17;;;;;;;2.51;75.45;101229.78;5067663;28;20308;-80
2022/01/08 03:04:12;;;;;;;16.77;14.23;;;;;;;2.65;75.55;101237.03;5067444;28;20045;-80
2022/01/08 03:06:40;;;;;;;15.33;13.73;;;;;;;2.62;75.38;101222.31;5068418;28;20056;-79
2022/01/08 03:09:06;;;;;;;17.13;13.80;;;;;;;2.42;75.68;101194.34;5072895;28;20122;-79
2022/01/08 03:11:33;;;;;;;15.67;14.13;;;;;;;2.61;75.46;101236.31;5091177;28;20135;-79
2022/01/08 03:14:00;;;;;;;16.43;13.87;;;;;;;2.56;75.74;101228.66;5088317;28;20483;-80
2022/01/08 03:16:27;;;;;;;15.70;13.93;;;;;;;2.14;75.34;101158.09;5087785;28;20442;-81
2022/01/08 03:18:57;;;;;;;15.77;14.17;;;;;;;2.36;75.30;101189.41;5088659;28;20131;-80
2022/01/08 03:21:24;;;;;;;14.90;13.13;;;;;;;2.45;75.19;101216.94;5087068;28;20139;-81
2022/01/08 03:24:01;;;;;;;16.37;14.67;;;;;;;2.52;75.53;101231.47;5087315;28;20052;-80
2022/01/08 03:26:28;;;;;;;16.17;14.47;;;;;;;2.05;74.95;101153.25;5086980;28;20499;-80
2022/01/08 03:28:56;;;;;;;19.57;13.97;;;;;;;2.50;74.64;101217.59;5087102;28;20156;-81
2022/01/08 03:31:24;;;;;;;16.53;14.77;;;;;;;2.56;75.58;101228.66;5086720;28;20673;-80
2022/01/08 03:33:52;;;;;;;17.23;14.77;;;;;;;1.75;75.09;101097.84;5086052;28;20490;-81
2022/01/08 03:36:21;;;;;;;15.37;13.83;;;;;;;2.47;76.01;101212.50;5086756;28;20109;-82
2022/01/08 03:38:50;;;;;;;16.70;14.63;;;;;;;2.56;75.75;101218.16;5086861;28;20350;-81
2022/01/08 03:41:17;;;;;;;16.13;14.17;;;;;;;2.53;75.92;101223.56;5086776;28;20066;-81
2022/01/08 03:43:46;;;;;;;17.50;14.93;;;;;;;2.13;75.35;101161.63;5087078;28;20052;-80
2022/01/08 03:46:13;;;;;;;15.80;14.07;;;;;;;2.40;76.00;101217.16;5086471;28;20052;-80
2022/01/08 03:48:46;;;;;;;17.10;15.37;;;;;;;2.27;76.24;101193.28;5087707;28;20048;-80
2022/01/08 03:51:14;;;;;;;15.47;13.87;;;;;;;2.28;76.59;101188.88;5086828;28;20044;-80
2022/01/08 03:53:41;;;;;;;16.77;14.97;;;;;;;1.85;76.38;101115.72;5086130;28;20138;-81
2022/01/08 03:56:08;;;;;;;16.37;14.43;;;;;;;2.45;76.13;101211.72;5088274;28;20068;-79
2022/01/08 03:58:34;;;;;;;15.70;14.10;;;;;;;2.49;75.78;101236.88;5087704;28;20058;-79
2022/01/08 04:01:01;;;;;;;15.30;13.50;;;;;;;2.32;75.89;101204.41;5086223;28;20392;-80
2022/01/08 04:03:28;;;;;;;16.13;13.77;;;;;;;2.47;75.87;101225.59;5086023;28;20139;-81
2022/01/08 04:05:55;;;;;;;16.40;13.77;;;;;;;1.92;75.75;101137.25;5086439;28;20052;-80
2022/01/08 04:08:24;;;;;;;17.17;14.67;;;;;;;1.99;76.13;101158.75;5086481;28;20052;-80
2022/01/08 04:10:54;;;;;;;18.00;15.17;;;;;;;2.21;75.88;101200.56;5067060;28;20151;-80
2022/01/08 04:13:25;;;;;;;17.03;15.23;;;;;;;2.05;76.07;101161.97;5066068;28;20143;-81
2022/01/08 04:15:56;;;;;;;17.73;15.00;;;;;;;2.12;76.24;101180.88;5067190;28;20044;-80
2022/01/08 04:18:23;;;;;;;16.20;13.90;;;;;;;2.21;76.10;101201.44;5065884;28;20127;-79
2022/01/08 04:21:04;;;;;;;16.17;14.67;;;;;;;2.39;76.28;101204.13;5065672;28;20076;-79
2022/01/08 04:23:31;;;;;;;15.50;14.00;;;;;;;2.20;75.23;101165.66;5065317;28;20110;-81
2022/01/08 04:25:58;;;;;;;16.20;14.60;;;;;;;2.23;75.45;101183.84;5065812;28;20152;-80
2022/01/08 04:28:24;;;;;;;17.20;14.80;;;;;;;2.40;75.52;101214.53;5065545;28;20131;-81
2022/01/08 04:30:51;;;;;;;16.80;14.97;;;;;;;2.29;75.66;101209.78;5065330;28;20048;-81
2022/01/08 04:33:18;;;;;;;17.53;15.73;;;;;;;2.17;75.75;101194.63;5065777;28;20519;-82
2022/01/08 04:35:44;;;;;;;16.37;14.70;;;;;;;1.81;75.69;101119.38;5065146;28;20115;-81
2022/01/08 04:38:12;;;;;;;17.10;15.40;;;;;;;2.25;75.22;101170.69;5065718;28;20049;-80
2022/01/08 04:40:39;;;;;;;16.17;14.43;;;;;;;2.22;74.60;101171.69;5065724;28;20047;-81
2022/01/08 04:43:06;;;;;;;18.17;14.57;;;;;;;2.31;75.51;101197.47;5065553;28;20048;-81
2022/01/08 04:45:33;;;;;;;16.80;14.27;;;;;;;2.25;75.42;101187.25;5065434;28;20041;-80
2022/01/08 04:48:01;;;;;;;16.77;14.93;;;;;;;2.42;75.56;101219.72;5066110;28;20044;-81
2022/01/08 04:50:29;;;;;;;17.23;14.67;;;;;;;2.19;75.47;101187.53;5068941;28;20404;-79
2022/01/08 04:52:57;;;;;;;16.07;14.53;;;;;;;2.35;75.96;101227.88;5069344;28;20048;-80
2022/01/08 04:55:24;;;;;;;17.10;15.50;;;;;;;1.74;76.12;101117.09;5071327;28;20275;-79
2022/01/08 04:57:51;;;;;;;18.37;14.87;;;;;;;2.28;76.25;101221.19;5070246;28;20052;-79
2022/01/08 05:00:19;;;;;;;16.53;14.93;;;;;;;2.35;75.95;101220.00;5069533;28;20364;-79
2022/01/08 05:02:47;;;;;;;16.70;14.97;;;;;;;2.15;75.91;101193.84;5069026;28;20140;-80
2022/01/08 05:05:14;;;;;;;16.57;14.97;;;;;;;1.90;75.12;101149.56;5069407;28;20040;-81
2022/01/08 05:07:44;;;;;;;17.27;15.47;;;;;;;2.29;75.51;101216.81;5069314;28;20131;-79
2022/01/08 05:10:11;;;;;;;16.53;14.93;;;;;;;2.21;75.91;101206.66;5082341;28;20136;-81
2022/01/08 05:12:38;;;;;;;16.40;14.80;;;;;;;2.34;75.67;101234.00;5089497;28;20055;-80
2022/01/08 05:15:05;;;;;;;20.97;14.80;;;;;;;2.02;74.62;101192.69;5089164;28;20052;-80
2022/01/08 05:17:37;;;;;;;17.27;14.43;;;;;;;1.91;75.47;101173.03;5089176;28;20468;-81
2022/01/08 05:20:09;;;;;;;16.95;14.20;;;;;;;2.04;75.65;101190.81;5089755;28;20220;-80
2022/01/08 05:22:52;;;;;;;17.60;15.80;;;;;;;1.46;75.75;101098.22;5090501;28;20403;-80
2022/01/08 05:25:21;;;;;;;17.30;15.60;;;;;;;1.96;76.10;101161.50;5089003;28;20119;-80
2022/01/08 05:27:48;;;;;;;17.67;15.83;;;;;;;2.12;75.68;101184.34;5090354;28;20298;-80
2022/01/08 05:30:17;;;;;;;15.60;14.20;;;;;;;2.33;75.35;101220.97;5089260;28;20147;-80
2022/01/08 05:32:44;;;;;;;17.40;14.67;;;;;;;2.32;75.66;101220.13;5090877;28;20052;-81
2022/01/08 05:35:11;;;;;;;19.80;15.63;;;;;;;2.32;75.51;101220.13;5089711;28;20152;-80
2022/01/08 05:37:46;;;;;;;18.20;16.30;;;;;;;2.31;76.38;101215.81;5093688;28;20054;-80
2022/01/08 05:40:13;;;;;;;16.13;14.47;;;;;;;2.30;76.04;101221.13;5091719;28;20036;-80
2022/01/08 05:42:40;;;;;;;17.17;15.37;;;;;;;2.23;75.86;101210.03;5091020;28;20087;-79
2022/01/08 05:45:07;;;;;;;18.80;16.47;;;;;;;2.20;75.52;101209.34;5092505;28;20278;-80
2022/01/08 05:47:35;;;;;;;16.53;14.83;;;;;;;2.24;75.63;101217.00;5089813;28;20055;-80
2022/01/08 05:50:06;;;;;;;16.40;14.67;;;;;;;1.80;75.33;101154.34;5089118;28;20048;-79
2022/01/08 05:52:33;;;;;;;16.40;14.80;;;;;;;1.95;74.99;101178.16;5089139;28;20466;-80
2022/01/08 05:54:59;;;;;;;17.70;15.77;;;;;;;2.22;75.36;101233.72;5089026;28;20469;-80
2022/01/08 05:57:26;;;;;;;18.10;16.13;;;;;;;2.16;75.35;101220.88;5089270;28;20055;-81
2022/01/08 05:59:53;;;;;;;18.27;16.47;;;;;;;1.91;74.96;101173.03;5087836;28;20127;-80
2022/01/08 06:02:19;;;;;;;18.43;15.27;;;;;;;2.22;76.20;101216.22;5089247;28;20064;-81
2022/01/08 06:04:46;;;;;;;18.23;15.67;;;;;;;2.23;75.92;101220.53;5088007;28;20070;-80
2022/01/08 06:07:13;;;;;;;16.27;14.73;;;;;;;2.23;75.87;101204.81;5088048;28;20071;-80
2022/01/08 06:09:40;;;;;;;17.93;16.13;;;;;;;2.23;75.98;101207.44;5078538;28;20607;-80
2022/01/08 06:12:07;;;;;;;17.90;15.90;;;;;;;1.95;75.69;101162.44;5067925;28;20131;-80
2022/01/08 06:14:34;;;;;;;20.00;16.47;;;;;;;2.05;75.96;101177.66;5067286;28;20403;-80
2022/01/08 06:17:00;;;;;;;19.63;15.63;;;;;;;1.73;75.73;101124.13;5068709;28;20263;-80
2022/01/08 06:19:27;;;;;;;16.93;15.13;;;;;;;2.03;76.68;101176.88;5070578;28;20159;-80
2022/01/08 06:21:53;;;;;;;17.13;15.30;;;;;;;2.03;75.47;101189.97;5071452;28;20184;-81
2022/01/08 06:24:20;;;;;;;19.33;16.90;;;;;;;2.09;75.59;101201.97;5069801;28;20147;-80
2022/01/08 06:26:47;;;;;;;18.43;16.60;;;;;;;1.90;75.24;101160.88;5067432;28;20591;-82
2022/01/08 06:29:13;;;;;;;17.93;16.03;;;;;;;1.82;76.03;101128.06;5082412;28;20051;-81
2022/01/08 06:31:42;;;;;;;19.80;15.10;;;;;;;2.14;75.65;101171.19;5107760;28;20387;-81
2022/01/08 06:34:09;;;;;;;21.20;16.07;;;;;;;1.92;75.52;101127.63;5107370;28;20475;-80
2022/01/08 06:36:35;;;;;;;16.30;14.63;;;;;;;2.04;75.10;101152.41;5107216;28;20147;-80
2022/01/08 06:39:02;;;;;;;18.00;16.20;;;;;;;2.09;75.94;101149.59;5107625;28;20066;-79
2022/01/08 06:41:29;;;;;;;17.83;15.93;;;;;;;1.99;75.51;101119.47;5107228;28;20069;-81
2022/01/08 06:43:57;;;;;;;19.33;15.53;;;;;;;2.25;75.28;101155.81;5107078;28;20058;-81
2022/01/08 06:46:24;;;;;;;17.83;16.03;;;;;;;1.84;75.73;101103.53;5107127;28;20050;-82
2022/01/08 06:48:51;;;;;;;19.83;15.67;;;;;;;2.12;75.49;101144.22;5106918;28;20095;-80
2022/01/08 06:51:18;;;;;;;15.30;13.67;;;;;;;2.25;75.64;101139.25;5106863;28;20047;-80
2022/01/08 06:53:44;;;;;;;16.80;14.77;;;;;;;2.27;74.88;101163.63;5107662;28;20683;-79
2022/01/08 06:56:11;;;;;;;15.70;13.30;;;;;;;2.14;75.77;101158.94;5107060;28;20060;-79
2022/01/08 06:58:37;;;;;;;15.37;13.53;;;;;;;1.95;75.32;101136.25;5106772;28;20040;-80
2022/01/08 07:01:04;;;;;;;13.93;12.33;;;;;;;2.10;75.07;101162.59;5106749;28;20052;-81
2022/01/08 07:03:31;;;;;;;13.67;12.27;;;;;;;1.92;74.79;101148.56;5106220;28;20055;-81
2022/01/08 07:05:58;;;;;;;14.20;12.77;;;;;;;1.87;75.30;101150.53;5099830;28;20479;-79
2022/01/08 07:08:26;;;;;;;23.43;14.43;;;;;;;1.99;75.12;101175.34;5086272;28;20507;-80
2022/01/08 07:10:53;;;;;;;15.43;13.17;;;;;;;1.81;74.67;101166.50;5085799;28;20162;-80
2022/01/08 07:13:22;;;;;;;15.63;14.00;;;;;;;1.89;75.25;101190.59;5085353;28;20052;-79
2022/01/08 07:15:48;;;;;;;15.60;13.90;;;;;;;1.86;75.29;101189.88;5086056;28;20075;-80
2022/01/08 07:18:15;;;;;;;16.53;13.17;;;;;;;1.83;76.02;101179.53;5086695;28;20159;-80
2022/01/08 07:20:42;;;;;;;18.13;13.60;;;;;;;1.90;76.03;101208.00;5086048;28;20060;-81
2022/01/08 07:23:08;;;;;;;16.43;12.67;;;;;;;1.84;75.86;101202.16;5085966;28;20128;-80
2022/01/08 07:25:35;;;;;;;15.30;13.63;;;;;;;1.82;76.23;101202.25;5084698;28;20138;-80
2022/01/08 07:28:02;;;;;;;15.07;13.27;;;;;;;1.71;76.11;101189.59;5068250;28;20056;-81
2022/01/08 07:30:28;;;;;;;16.90;13.60;;;;;;;1.96;75.90;101226.97;5084731;28;20139;-80
2022/01/08 07:32:55;;;;;;;16.10;14.20;;;;;;;1.91;76.04;101233.25;5084160;28;20510;-79
2022/01/08 07:35:22;;;;;;;15.17;13.20;;;;;;;1.81;76.18;101204.94;5084705;28;20048;-81
2022/01/08 07:37:52;;;;;;;15.67;13.80;;;;;;;1.98;76.60;101230.38;5086816;28;20138;-79
2022/01/08 07:40:20;;;;;;;13.83;12.43;;;;;;;2.11;75.59;101242.91;5086044;28;20059;-78
2022/01/08 07:42:48;;;;;;;15.33;13.73;;;;;;;2.19;74.64;101241.72;5086073;28;20500;-81
2022/01/08 07:45:16;;;;;;;17.33;15.53;;;;;;;2.23;74.55;101243.25;5085629;28;20058;-80
2022/01/08 07:47:42;;;;;;;17.30;13.83;;;;;;;2.24;74.32;101237.97;5085814;28;20048;-79
2022/01/08 07:50:09;;;;;;;16.67;14.10;;;;;;;2.20;74.35;101223.28;5087103;28;20075;-81
2022/01/08 07:52:37;;;;;;;16.43;13.63;;;;;;;2.23;74.24;101231.00;5085482;28;20052;-80
2022/01/08 07:55:04;;;;;;;14.17;12.77;;;;;;;2.22;74.13;101213.59;5086338;28;20399;-79
2022/01/08 07:57:30;;;;;;;13.70;12.23;;;;;;;2.27;73.07;101221.25;5085847;28;20487;-80
2022/01/08 07:59:57;;;;;;;15.77;13.03;;;;;;;2.19;73.22;101191.94;5085529;28;20471;-80
2022/01/08 08:02:24;;;;;;;14.33;12.87;;;;;;;2.49;72.44;101242.13;5086387;28;20152;-80
2022/01/08 08:04:51;;;;;;;23.33;13.63;;;;;;;2.62;72.60;101248.53;5085999;28;20051;-81
2022/01/08 08:07:36;;;;;;;13.97;12.50;;;;;;;2.59;72.37;101232.91;5087676;28;20091;-81
2022/01/08 08:10:06;;;;;;;14.93;13.33;;;;;;;2.66;72.11;101239.56;5090450;28;20047;-81
2022/01/08 08:12:34;;;;;;;16.92;14.00;;;;;;;2.58;72.40;101223.34;5106236;28;20046;-82
2022/01/08 08:15:01;;;;;;;16.67;13.77;;;;;;;2.57;71.72;101216.41;5104086;28;20514;-81
2022/01/08 08:17:33;;;;;;;15.20;13.60;;;;;;;2.62;72.07;101226.66;5106154;28;20136;-81
2022/01/08 08:20:01;;;;;;;16.25;14.07;;;;;;;2.42;71.97;101162.91;5108113;28;20487;-79
2022/01/08 08:22:30;;;;;;;16.60;14.77;;;;;;;2.58;72.32;101172.72;5105937;28;20413;-80
2022/01/08 08:24:57;;;;;;;16.63;14.70;;;;;;;2.82;72.56;101207.41;5105750;28;20083;-80
2022/01/08 08:27:24;;;;;;;16.27;14.57;;;;;;;2.67;72.01;101167.88;5105120;28;20505;-81
2022/01/08 08:29:50;;;;;;;17.70;15.27;;;;;;;3.07;72.23;101223.69;5106288;28;20047;-80
2022/01/08 08:32:19;;;;;;;18.80;16.40;;;;;;;2.91;71.56;101189.47;5105511;28;20044;-82
2022/01/08 08:34:46;;;;;;;18.73;16.27;;;;;;;3.17;72.10;101224.94;5104531;28;20052;-81
2022/01/08 08:37:14;;;;;;;17.90;16.13;;;;;;;3.00;72.25;101191.63;5105723;28;20044;-81
2022/01/08 08:39:40;;;;;;;17.97;15.83;;;;;;;3.15;71.34;101200.53;5103786;28;20079;-82
2022/01/08 08:42:07;;;;;;;16.30;14.80;;;;;;;2.87;71.21;101148.56;5082805;28;20040;-80
2022/01/08 08:44:34;;;;;;;17.40;15.57;;;;;;;3.48;71.48;101247.06;5087198;28;20513;-80
2022/01/08 08:47:01;;;;;;;17.87;16.03;;;;;;;3.54;70.09;101238.03;5086923;28;20070;-81
2022/01/08 08:49:27;;;;;;;18.00;15.67;;;;;;;3.37;69.18;101197.75;5089085;28;20499;-80
2022/01/08 08:51:54;;;;;;;21.27;16.90;;;;;;;3.43;68.68;101209.72;5086346;28;20063;-81
2022/01/08 08:54:21;;;;;;;19.10;17.10;;;;;;;3.53;68.47;101216.19;5085837;28;20060;-79
2022/01/08 08:56:48;;;;;;;21.10;16.90;;;;;;;3.71;68.60;101229.31;5085605;28;20600;-81
2022/01/08 08:59:15;;;;;;;18.83;16.77;;;;;;;3.73;68.08;101227.47;5086950;28;20093;-80
2022/01/08 09:01:41;;;;;;;21.10;16.37;;;;;;;3.75;68.11;101225.63;5085460;28;20051;-80
2022/01/08 09:04:08;;;;;;;18.17;16.30;;;;;;;3.28;68.81;101156.19;5086364;28;20109;-80
2022/01/08 09:06:35;;;;;;;18.87;16.50;;;;;;;3.79;68.86;101224.56;5085120;28;20143;-82
2022/01/08 09:09:03;;;;;;;17.27;15.67;;;;;;;3.20;68.31;101121.59;5082614;28;20135;-79
2022/01/08 09:11:30;;;;;;;17.50;15.57;;;;;;;3.56;68.05;101173.19;5066727;28;20515;-81
2022/01/08 09:13:58;;;;;;;17.97;16.13;;;;;;;3.95;67.49;101228.06;5064557;28;20353;-79
2022/01/08 09:16:25;;;;;;;16.53;14.87;;;;;;;3.56;67.72;101168.78;5064308;28;20102;-80
2022/01/08 09:18:54;;;;;;;17.10;15.20;;;;;;;3.85;66.91;101224.22;5064598;28;20083;-76
2022/01/08 09:21:21;;;;;;;15.77;14.23;;;;;;;4.00;67.94;101241.81;5066309;28;20128;-80
2022/01/08 09:23:48;;;;;;;14.83;13.53;;;;;;;4.07;66.71;101237.94;5064970;28;20554;-81
2022/01/08 09:26:15;;;;;;;17.93;14.97;;;;;;;4.00;66.55;101225.22;5065100;28;20207;-81
2022/01/08 09:28:42;;;;;;;15.97;14.37;;;;;;;4.11;66.11;101232.56;5065056;28;20121;-78
2022/01/08 09:31:09;;;;;;;18.23;16.30;;;;;;;4.21;66.40;101233.78;5065686;28;20143;-79
2022/01/08 09:33:37;;;;;;;14.73;13.37;;;;;;;3.98;66.31;101196.41;5068049;28;20084;-79
2022/01/08 09:36:04;;;;;;;17.27;15.63;;;;;;;4.12;65.67;101208.81;5070583;28;20053;-80
2022/01/08 09:38:31;;;;;;;17.73;16.00;;;;;;;4.27;66.60;101226.44;5070302;28;20143;-80
2022/01/08 09:40:58;;;;;;;17.77;15.93;;;;;;;4.01;66.78;101172.59;5068545;28;20076;-79
2022/01/08 09:43:26;;;;;;;19.20;15.77;;;;;;;4.48;66.05;101234.94;5069151;28;20060;-79
2022/01/08 09:45:53;;;;;;;17.10;15.30;;;;;;;4.30;65.54;101204.38;5068604;28;20048;-79
2022/01/08 09:48:20;;;;;;;17.07;15.37;;;;;;;4.42;66.11;101216.03;5070091;28;20048;-78
2022/01/08 09:50:47;;;;;;;16.77;15.03;;;;;;;4.27;65.31;101167.72;5068623;28;20423;-80
2022/01/08 09:53:14;;;;;;;17.40;15.60;;;;;;;4.66;65.00;101229.63;5068497;28;20130;-78
2022/01/08 09:55:40;;;;;;;17.67;15.87;;;;;;;4.53;64.71;101194.41;5068685;28;20514;-81
2022/01/08 09:58:08;;;;;;;17.60;15.27;;;;;;;4.82;66.04;101227.84;5068889;28;20118;-81
2022/01/08 10:00:36;;;;;;;18.23;16.40;;;;;;;4.52;64.96;101163.81;5068717;28;20133;-81
2022/01/08 10:03:14;;;;;;;18.00;15.27;;;;;;;4.84;65.29;101212.00;5069467;28;20052;-79
2022/01/08 10:05:47;;;;;;;18.27;16.27;;;;;;;5.00;64.63;101230.41;5068426;28;20464;-78
2022/01/08 10:08:34;;;;;;;18.07;16.37;;;;;;;4.91;63.73;101194.94;5068377;28;20456;-81
2022/01/08 10:11:07;;;;;;;17.87;15.93;;;;;;;5.02;63.31;101225.91;5068549;28;20200;-81
2022/01/08 10:13:41;;;;;;;17.15;15.35;;;;;;;5.01;64.26;101229.47;5069261;28;20151;-81
2022/01/08 10:19:15;;;;;;;21.67;16.80;;;;;;;4.92;64.39;101236.94;5088515;28;20147;-80
2022/01/08 10:21:44;;;;;;;19.43;17.43;;;;;;;4.93;64.75;101238.66;5088668;28;20147;-79
2022/01/08 10:24:10;;;;;;;18.92;16.92;;;;;;;4.01;65.06;101085.91;5087115;28;20404;-80
2022/01/08 10:26:40;;;;;;;19.77;17.58;;;;;;;4.93;65.03;101232.53;5086923;28;20132;-79
2022/01/08 10:29:11;;;;;;;23.13;17.55;;;;;;;5.07;64.48;101237.03;5086417;28;20572;-79
2022/01/08 10:31:44;;;;;;;19.73;16.08;;;;;;;4.78;63.51;101184.25;5086713;28;20167;-81
2022/01/08 10:34:14;;;;;;;17.58;15.75;;;;;;;5.00;64.17;101206.72;5086944;28;20135;-81
2022/01/08 10:36:57;;;;;;;17.50;15.68;;;;;;;5.19;63.47;101238.13;5087019;28;20044;-82
2022/01/08 10:39:29;;;;;;;17.47;15.67;;;;;;;5.11;63.90;101212.25;5089134;28;20044;-83
2022/01/08 10:41:58;;;;;;;18.10;16.05;;;;;;;5.16;63.05;101233.88;5086636;28;20149;-82
2022/01/08 10:44:35;;;;;;;18.70;15.27;;;;;;;5.18;63.33;101210.97;5086216;28;20078;-81
2022/01/08 10:47:10;;;;;;;17.17;15.50;;;;;;;5.33;63.64;101219.78;5085354;28;20125;-80
2022/01/08 10:49:42;;;;;;;20.53;14.77;;;;;;;5.24;63.09;101199.22;5086875;28;20052;-79
2022/01/08 10:52:12;;;;;;;17.00;15.27;;;;;;;5.20;63.07;101198.56;5087428;28;20071;-82
2022/01/08 10:54:46;;;;;;;17.57;14.30;;;;;;;5.30;62.81;101223.44;5086427;28;20048;-81
2022/01/08 10:57:14;;;;;;;14.80;13.25;;;;;;;4.71;62.07;101112.72;5088264;28;20059;-81
2022/01/08 10:59:43;;;;;;;17.43;15.33;;;;;;;5.42;61.79;101236.84;5087988;28;20479;-83
2022/01/08 11:02:12;;;;;;;17.60;13.80;;;;;;;5.45;61.80;101210.31;5084676;28;20058;-82
2022/01/08 11:04:53;;;;;;;14.90;13.03;;;;;;;5.54;61.55;101221.16;5083436;28;20509;-81
2022/01/08 11:07:27;;;;;;;15.80;13.60;;;;;;;4.39;61.09;100983.06;5084547;28;20139;-80
2022/01/08 11:10:04;;;;;;;15.43;13.80;;;;;;;5.66;61.27;101156.38;5074244;28;20044;-81
2022/01/08 11:12:37;;;;;;;15.97;13.80;;;;;;;6.16;59.56;101194.66;5065090;28;20137;-81
2022/01/08 11:18:00;;;;;;;14.83;12.97;;;;;;;5.96;59.48;101124.72;5067853;28;20056;-82
2022/01/08 11:20:48;;;;;;;17.98;15.35;;;;;;;6.32;60.02;101189.31;5066568;28;20064;-81
2022/01/08 11:23:23;;;;;;;14.93;13.48;;;;;;;6.04;60.41;101153.25;5067631;28;20045;-82
2022/01/08 11:25:51;;;;;;;16.92;13.75;;;;;;;6.26;59.95;101168.59;5065635;28;20080;-82
2022/01/08 11:28:19;;;;;;;16.98;14.30;;;;;;;6.17;59.63;101159.47;5065252;28;20494;-81
2022/01/08 11:30:51;;;;;;;16.98;14.27;;;;;;;6.18;60.40;101170.88;5065539;28;20052;-81
2022/01/08 11:33:27;;;;;;;15.55;13.80;;;;;;;5.76;60.08;101118.00;5065433;28;20102;-82
2022/01/08 11:35:55;;;;;;;15.05;13.38;;;;;;;6.07;60.16;101175.94;5065204;28;20487;-81
2022/01/08 11:38:23;;;;;;;20.55;13.88;;;;;;;6.01;59.79;101182.44;5085160;28;20075;-81
2022/01/08 11:40:56;;;;;;;14.00;12.60;;;;;;;5.73;60.35;101147.19;5086147;28;20060;-79
2022/01/08 11:43:25;;;;;;;17.63;13.45;;;;;;;5.72;60.43;101148.09;5087440;28;20194;-80
2022/01/08 11:46:02;;;;;;;16.40;13.30;;;;;;;5.75;61.30;101152.34;5085255;28;20044;-82
2022/01/08 11:48:48;;;;;;;16.60;14.93;;;;;;;5.77;60.94;101146.03;5085546;28;20048;-82